sensor_id;sensor_type;location;lat;lon;timestamp;P1;durP1;ratioP1;P2;durP2;ratioP2
28587;SDS011;15787;49.662;10.162;2023-12-20T00:00:46;10.38;;;5.63;;
28587;SDS011;15787;49.662;10.162;2023-12-20T00:03:19;9.02;;;5.53;;
28587;SDS011;15787;49.662;10.162;2023-12-20T00:05:51;8.43;;;5.25;;
28587;SDS011;15787;49.662;10.162;2023-12-20T00:08:24;7.68;;;4.82;;
28587;SDS011;15787;49.662;10.162;2023-12-20T00:10:57;8.07;;;4.97;;
28587;SDS011;15787;49.662;10.162;2023-12-20T00:13:30;7.40;;;4.70;;
28587;SDS011;15787;49.662;10.162;2023-12-20T00:16:04;7.50;;;4.60;;
28587;SDS011;15787;49.662;10.162;2023-12-20T00:18:38;8.05;;;4.43;;
28587;SDS011;15787;49.662;10.162;2023-12-20T00:21:11;7.38;;;4.40;;
28587;SDS011;15787;49.662;10.162;2023-12-20T00:23:43;7.18;;;4.13;;
28587;SDS011;15787;49.662;10.162;2023-12-20T00:26:16;6.38;;;4.15;;
28587;SDS011;15787;49.662;10.162;2023-12-20T00:28:49;7.15;;;4.75;;
28587;SDS011;15787;49.662;10.162;2023-12-20T00:31:23;5.97;;;3.60;;
28587;SDS011;15787;49.662;10.162;2023-12-20T00:33:56;6.18;;;3.67;;
28587;SDS011;15787;49.662;10.162;2023-12-20T00:36:29;5.88;;;3.47;;
28587;SDS011;15787;49.662;10.162;2023-12-20T00:39:02;6.97;;;3.33;;
28587;SDS011;15787;49.662;10.162;2023-12-20T00:41:35;4.85;;;3.22;;
28587;SDS011;15787;49.662;10.162;2023-12-20T00:44:08;5.53;;;3.35;;
28587;SDS011;15787;49.662;10.162;2023-12-20T00:46:42;8.77;;;3.10;;
28587;SDS011;15787;49.662;10.162;2023-12-20T00:49:15;5.97;;;3.40;;
28587;SDS011;15787;49.662;10.162;2023-12-20T00:51:48;5.97;;;3.28;;
28587;SDS011;15787;49.662;10.162;2023-12-20T00:54:22;5.72;;;3.03;;
28587;SDS011;15787;49.662;10.162;2023-12-20T00:56:54;5.25;;;3.00;;
28587;SDS011;15787;49.662;10.162;2023-12-20T00:59:27;4.82;;;2.88;;
28587;SDS011;15787;49.662;10.162;2023-12-20T01:02:01;5.65;;;3.20;;
28587;SDS011;15787;49.662;10.162;2023-12-20T01:04:34;4.18;;;2.47;;
28587;SDS011;15787;49.662;10.162;2023-12-20T01:07:07;5.85;;;3.20;;
28587;SDS011;15787;49.662;10.162;2023-12-20T01:09:40;5.85;;;3.40;;
28587;SDS011;15787;49.662;10.162;2023-12-20T01:12:13;4.78;;;3.00;;
28587;SDS011;15787;49.662;10.162;2023-12-20T01:14:46;5.03;;;2.75;;
28587;SDS011;15787;49.662;10.162;2023-12-20T01:17:20;4.20;;;2.83;;
28587;SDS011;15787;49.662;10.162;2023-12-20T01:19:53;5.00;;;3.15;;
28587;SDS011;15787;49.662;10.162;2023-12-20T01:22:26;5.30;;;2.70;;
28587;SDS011;15787;49.662;10.162;2023-12-20T01:24:59;6.40;;;2.65;;
28587;SDS011;15787;49.662;10.162;2023-12-20T01:27:34;4.57;;;2.80;;
28587;SDS011;15787;49.662;10.162;2023-12-20T01:30:07;6.70;;;2.53;;
28587;SDS011;15787;49.662;10.162;2023-12-20T01:32:42;4.38;;;2.97;;
28587;SDS011;15787;49.662;10.162;2023-12-20T01:35:15;4.88;;;2.40;;
28587;SDS011;15787;49.662;10.162;2023-12-20T01:37:48;4.57;;;2.45;;
28587;SDS011;15787;49.662;10.162;2023-12-20T01:40:20;4.03;;;2.45;;
28587;SDS011;15787;49.662;10.162;2023-12-20T01:43:00;4.20;;;2.15;;
28587;SDS011;15787;49.662;10.162;2023-12-20T01:45:33;3.10;;;1.90;;
28587;SDS011;15787;49.662;10.162;2023-12-20T01:48:08;3.67;;;2.17;;
28587;SDS011;15787;49.662;10.162;2023-12-20T01:50:42;3.70;;;2.30;;
28587;SDS011;15787;49.662;10.162;2023-12-20T01:53:15;3.85;;;2.33;;
28587;SDS011;15787;49.662;10.162;2023-12-20T01:55:48;2.22;;;1.70;;
28587;SDS011;15787;49.662;10.162;2023-12-20T01:58:24;3.53;;;2.10;;
28587;SDS011;15787;49.662;10.162;2023-12-20T02:00:58;3.22;;;1.77;;
28587;SDS011;15787;49.662;10.162;2023-12-20T02:03:33;2.75;;;1.58;;
28587;SDS011;15787;49.662;10.162;2023-12-20T02:06:08;2.80;;;1.70;;
28587;SDS011;15787;49.662;10.162;2023-12-20T02:08:41;3.45;;;2.47;;
28587;SDS011;15787;49.662;10.162;2023-12-20T02:11:14;3.63;;;1.67;;
28587;SDS011;15787;49.662;10.162;2023-12-20T02:13:47;2.55;;;1.50;;
28587;SDS011;15787;49.662;10.162;2023-12-20T02:16:20;2.30;;;1.25;;
28587;SDS011;15787;49.662;10.162;2023-12-20T02:18:55;2.10;;;1.20;;
28587;SDS011;15787;49.662;10.162;2023-12-20T02:21:32;3.05;;;1.48;;
28587;SDS011;15787;49.662;10.162;2023-12-20T02:24:07;3.15;;;1.35;;
28587;SDS011;15787;49.662;10.162;2023-12-20T02:26:40;2.40;;;1.40;;
28587;SDS011;15787;49.662;10.162;2023-12-20T02:29:17;2.08;;;1.05;;
28587;SDS011;15787;49.662;10.162;2023-12-20T02:31:50;2.33;;;1.05;;
28587;SDS011;15787;49.662;10.162;2023-12-20T02:34:23;3.03;;;1.45;;
28587;SDS011;15787;49.662;10.162;2023-12-20T02:36:57;1.92;;;1.10;;
28587;SDS011;15787;49.662;10.162;2023-12-20T02:39:30;3.05;;;1.02;;
28587;SDS011;15787;49.662;10.162;2023-12-20T02:42:03;2.05;;;0.90;;
28587;SDS011;15787;49.662;10.162;2023-12-20T02:44:36;1.60;;;1.00;;
28587;SDS011;15787;49.662;10.162;2023-12-20T02:47:09;3.63;;;0.70;;
28587;SDS011;15787;49.662;10.162;2023-12-20T02:49:42;2.60;;;1.20;;
28587;SDS011;15787;49.662;10.162;2023-12-20T02:52:16;2.05;;;1.00;;
28587;SDS011;15787;49.662;10.162;2023-12-20T02:54:49;1.90;;;1.00;;
28587;SDS011;15787;49.662;10.162;2023-12-20T02:57:22;1.83;;;0.93;;
28587;SDS011;15787;49.662;10.162;2023-12-20T02:59:55;2.67;;;0.93;;
28587;SDS011;15787;49.662;10.162;2023-12-20T03:02:28;2.65;;;1.10;;
28587;SDS011;15787;49.662;10.162;2023-12-20T03:05:01;2.17;;;0.70;;
28587;SDS011;15787;49.662;10.162;2023-12-20T03:07:35;2.50;;;0.80;;
28587;SDS011;15787;49.662;10.162;2023-12-20T03:10:09;1.70;;;0.90;;
28587;SDS011;15787;49.662;10.162;2023-12-20T03:12:53;3.95;;;1.10;;
28587;SDS011;15787;49.662;10.162;2023-12-20T03:15:27;2.95;;;1.08;;
28587;SDS011;15787;49.662;10.162;2023-12-20T03:18:00;1.85;;;1.00;;
28587;SDS011;15787;49.662;10.162;2023-12-20T03:20:33;1.20;;;0.80;;
28587;SDS011;15787;49.662;10.162;2023-12-20T03:23:07;2.80;;;1.02;;
28587;SDS011;15787;49.662;10.162;2023-12-20T03:25:40;2.38;;;1.05;;
28587;SDS011;15787;49.662;10.162;2023-12-20T03:28:14;1.55;;;0.90;;
28587;SDS011;15787;49.662;10.162;2023-12-20T03:30:47;3.92;;;1.00;;
28587;SDS011;15787;49.662;10.162;2023-12-20T03:33:20;2.13;;;0.70;;
28587;SDS011;15787;49.662;10.162;2023-12-20T03:35:53;2.20;;;0.80;;
28587;SDS011;15787;49.662;10.162;2023-12-20T03:38:27;1.35;;;0.85;;
28587;SDS011;15787;49.662;10.162;2023-12-20T03:41:00;1.65;;;0.70;;
28587;SDS011;15787;49.662;10.162;2023-12-20T03:43:33;0.77;;;0.60;;
28587;SDS011;15787;49.662;10.162;2023-12-20T03:46:07;0.93;;;0.70;;
28587;SDS011;15787;49.662;10.162;2023-12-20T03:48:40;1.23;;;0.60;;
28587;SDS011;15787;49.662;10.162;2023-12-20T03:51:13;1.65;;;0.40;;
28587;SDS011;15787;49.662;10.162;2023-12-20T03:53:48;0.70;;;0.35;;
28587;SDS011;15787;49.662;10.162;2023-12-20T03:56:20;0.65;;;0.50;;
28587;SDS011;15787;49.662;10.162;2023-12-20T03:58:53;1.08;;;0.40;;
28587;SDS011;15787;49.662;10.162;2023-12-20T04:01:26;1.38;;;0.50;;
28587;SDS011;15787;49.662;10.162;2023-12-20T04:03:59;0.88;;;0.38;;
28587;SDS011;15787;49.662;10.162;2023-12-20T04:06:32;1.00;;;0.47;;
28587;SDS011;15787;49.662;10.162;2023-12-20T04:09:07;1.10;;;0.50;;
28587;SDS011;15787;49.662;10.162;2023-12-20T04:11:40;0.82;;;0.50;;
28587;SDS011;15787;49.662;10.162;2023-12-20T04:14:13;0.93;;;0.47;;
28587;SDS011;15787;49.662;10.162;2023-12-20T04:16:46;0.60;;;0.47;;
28587;SDS011;15787;49.662;10.162;2023-12-20T04:19:19;0.80;;;0.43;;
28587;SDS011;15787;49.662;10.162;2023-12-20T04:21:52;1.13;;;0.50;;
28587;SDS011;15787;49.662;10.162;2023-12-20T04:24:26;1.77;;;0.57;;
28587;SDS011;15787;49.662;10.162;2023-12-20T04:26:59;1.05;;;0.40;;
28587;SDS011;15787;49.662;10.162;2023-12-20T04:29:31;1.23;;;0.45;;
28587;SDS011;15787;49.662;10.162;2023-12-20T04:32:05;0.95;;;0.50;;
28587;SDS011;15787;49.662;10.162;2023-12-20T04:34:38;0.88;;;0.40;;
28587;SDS011;15787;49.662;10.162;2023-12-20T04:37:11;0.75;;;0.38;;
28587;SDS011;15787;49.662;10.162;2023-12-20T04:39:46;0.95;;;0.60;;
28587;SDS011;15787;49.662;10.162;2023-12-20T04:42:19;0.95;;;0.50;;
28587;SDS011;15787;49.662;10.162;2023-12-20T04:44:51;0.85;;;0.30;;
28587;SDS011;15787;49.662;10.162;2023-12-20T04:47:24;0.60;;;0.30;;
28587;SDS011;15787;49.662;10.162;2023-12-20T04:49:57;0.57;;;0.30;;
28587;SDS011;15787;49.662;10.162;2023-12-20T04:52:31;1.80;;;0.40;;
28587;SDS011;15787;49.662;10.162;2023-12-20T04:55:06;4.00;;;0.30;;
28587;SDS011;15787;49.662;10.162;2023-12-20T04:57:40;0.40;;;0.30;;
28587;SDS011;15787;49.662;10.162;2023-12-20T05:00:13;1.00;;;0.40;;
28587;SDS011;15787;49.662;10.162;2023-12-20T05:02:47;0.40;;;0.40;;
28587;SDS011;15787;49.662;10.162;2023-12-20T05:05:20;0.85;;;0.40;;
28587;SDS011;15787;49.662;10.162;2023-12-20T05:07:53;0.50;;;0.30;;
28587;SDS011;15787;49.662;10.162;2023-12-20T05:10:27;0.75;;;0.50;;
28587;SDS011;15787;49.662;10.162;2023-12-20T05:13:00;1.13;;;0.70;;
28587;SDS011;15787;49.662;10.162;2023-12-20T05:15:37;0.88;;;0.60;;
28587;SDS011;15787;49.662;10.162;2023-12-20T05:18:10;2.55;;;1.00;;
28587;SDS011;15787;49.662;10.162;2023-12-20T05:20:47;1.40;;;1.00;;
28587;SDS011;15787;49.662;10.162;2023-12-20T05:23:20;1.88;;;1.25;;
28587;SDS011;15787;49.662;10.162;2023-12-20T05:25:58;1.65;;;1.00;;
28587;SDS011;15787;49.662;10.162;2023-12-20T05:28:33;1.45;;;0.93;;
28587;SDS011;15787;49.662;10.162;2023-12-20T05:31:09;3.28;;;1.50;;
28587;SDS011;15787;49.662;10.162;2023-12-20T05:33:42;3.55;;;1.70;;
28587;SDS011;15787;49.662;10.162;2023-12-20T05:36:15;2.63;;;1.42;;
28587;SDS011;15787;49.662;10.162;2023-12-20T05:38:48;1.95;;;1.30;;
28587;SDS011;15787;49.662;10.162;2023-12-20T05:41:22;2.08;;;1.20;;
28587;SDS011;15787;49.662;10.162;2023-12-20T05:43:57;2.00;;;1.30;;
28587;SDS011;15787;49.662;10.162;2023-12-20T05:46:32;2.15;;;1.10;;
28587;SDS011;15787;49.662;10.162;2023-12-20T05:49:08;1.88;;;1.30;;
28587;SDS011;15787;49.662;10.162;2023-12-20T05:51:45;2.58;;;1.75;;
28587;SDS011;15787;49.662;10.162;2023-12-20T05:54:21;2.55;;;1.30;;
28587;SDS011;15787;49.662;10.162;2023-12-20T05:57:01;2.47;;;1.27;;
28587;SDS011;15787;49.662;10.162;2023-12-20T05:59:36;1.45;;;1.13;;
28587;SDS011;15787;49.662;10.162;2023-12-20T06:02:09;2.72;;;1.83;;
28587;SDS011;15787;49.662;10.162;2023-12-20T06:04:42;2.58;;;1.52;;
28587;SDS011;15787;49.662;10.162;2023-12-20T06:07:16;3.15;;;1.60;;
28587;SDS011;15787;49.662;10.162;2023-12-20T06:09:49;3.92;;;1.67;;
28587;SDS011;15787;49.662;10.162;2023-12-20T06:12:24;3.30;;;1.83;;
28587;SDS011;15787;49.662;10.162;2023-12-20T06:14:58;3.97;;;2.22;;
28587;SDS011;15787;49.662;10.162;2023-12-20T06:17:31;2.42;;;1.60;;
28587;SDS011;15787;49.662;10.162;2023-12-20T06:20:04;2.08;;;1.52;;
28587;SDS011;15787;49.662;10.162;2023-12-20T06:22:40;3.33;;;1.90;;
28587;SDS011;15787;49.662;10.162;2023-12-20T06:25:14;2.80;;;1.85;;
28587;SDS011;15787;49.662;10.162;2023-12-20T06:27:49;2.30;;;1.58;;
28587;SDS011;15787;49.662;10.162;2023-12-20T06:30:23;3.10;;;1.35;;
28587;SDS011;15787;49.662;10.162;2023-12-20T06:32:57;2.38;;;1.88;;
28587;SDS011;15787;49.662;10.162;2023-12-20T06:35:32;2.65;;;1.95;;
28587;SDS011;15787;49.662;10.162;2023-12-20T06:38:08;2.47;;;1.80;;
28587;SDS011;15787;49.662;10.162;2023-12-20T06:40:43;3.55;;;2.20;;
28587;SDS011;15787;49.662;10.162;2023-12-20T06:43:18;2.60;;;1.75;;
28587;SDS011;15787;49.662;10.162;2023-12-20T06:46:10;2.75;;;1.50;;
28587;SDS011;15787;49.662;10.162;2023-12-20T06:48:44;3.67;;;2.13;;
28587;SDS011;15787;49.662;10.162;2023-12-20T06:51:17;3.45;;;1.92;;
28587;SDS011;15787;49.662;10.162;2023-12-20T06:53:51;2.70;;;1.83;;
28587;SDS011;15787;49.662;10.162;2023-12-20T06:56:24;2.50;;;2.00;;
28587;SDS011;15787;49.662;10.162;2023-12-20T06:58:58;2.70;;;1.95;;
28587;SDS011;15787;49.662;10.162;2023-12-20T07:01:31;3.30;;;2.17;;
28587;SDS011;15787;49.662;10.162;2023-12-20T07:04:04;3.67;;;2.20;;
28587;SDS011;15787;49.662;10.162;2023-12-20T07:06:37;4.00;;;2.13;;
28587;SDS011;15787;49.662;10.162;2023-12-20T07:09:10;2.30;;;1.75;;
28587;SDS011;15787;49.662;10.162;2023-12-20T07:11:44;3.13;;;1.92;;
28587;SDS011;15787;49.662;10.162;2023-12-20T07:14:18;2.60;;;1.90;;
28587;SDS011;15787;49.662;10.162;2023-12-20T07:16:51;3.28;;;2.33;;
28587;SDS011;15787;49.662;10.162;2023-12-20T07:19:24;3.80;;;2.72;;
28587;SDS011;15787;49.662;10.162;2023-12-20T07:21:57;3.58;;;2.25;;
28587;SDS011;15787;49.662;10.162;2023-12-20T07:24:30;4.20;;;2.33;;
28587;SDS011;15787;49.662;10.162;2023-12-20T07:27:03;5.50;;;2.85;;
28587;SDS011;15787;49.662;10.162;2023-12-20T07:29:38;4.03;;;2.28;;
28587;SDS011;15787;49.662;10.162;2023-12-20T07:32:11;3.55;;;2.50;;
28587;SDS011;15787;49.662;10.162;2023-12-20T07:34:43;4.10;;;2.40;;
28587;SDS011;15787;49.662;10.162;2023-12-20T07:37:17;4.10;;;2.25;;
28587;SDS011;15787;49.662;10.162;2023-12-20T07:39:50;7.18;;;2.25;;
28587;SDS011;15787;49.662;10.162;2023-12-20T07:42:22;3.55;;;2.47;;
28587;SDS011;15787;49.662;10.162;2023-12-20T07:44:57;3.70;;;1.80;;
28587;SDS011;15787;49.662;10.162;2023-12-20T07:47:30;2.92;;;1.92;;
28587;SDS011;15787;49.662;10.162;2023-12-20T07:50:03;5.53;;;2.55;;
28587;SDS011;15787;49.662;10.162;2023-12-20T07:52:36;3.65;;;2.00;;
28587;SDS011;15787;49.662;10.162;2023-12-20T07:55:09;4.05;;;2.17;;
28587;SDS011;15787;49.662;10.162;2023-12-20T07:57:42;5.03;;;2.20;;
28587;SDS011;15787;49.662;10.162;2023-12-20T08:00:17;5.70;;;2.20;;
28587;SDS011;15787;49.662;10.162;2023-12-20T08:02:50;3.63;;;2.10;;
28587;SDS011;15787;49.662;10.162;2023-12-20T08:05:23;3.42;;;1.92;;
28587;SDS011;15787;49.662;10.162;2023-12-20T08:07:56;3.22;;;1.80;;
28587;SDS011;15787;49.662;10.162;2023-12-20T08:10:29;3.33;;;1.67;;
28587;SDS011;15787;49.662;10.162;2023-12-20T08:13:02;5.78;;;2.10;;
28587;SDS011;15787;49.662;10.162;2023-12-20T08:15:37;5.18;;;2.40;;
28587;SDS011;15787;49.662;10.162;2023-12-20T08:18:09;4.93;;;1.98;;
28587;SDS011;15787;49.662;10.162;2023-12-20T08:20:42;3.90;;;2.00;;
28587;SDS011;15787;49.662;10.162;2023-12-20T08:23:15;3.70;;;1.77;;
28587;SDS011;15787;49.662;10.162;2023-12-20T08:25:48;2.60;;;1.60;;
28587;SDS011;15787;49.662;10.162;2023-12-20T08:28:21;4.60;;;2.08;;
28587;SDS011;15787;49.662;10.162;2023-12-20T08:30:56;8.07;;;2.25;;
28587;SDS011;15787;49.662;10.162;2023-12-20T08:33:29;4.32;;;2.42;;
28587;SDS011;15787;49.662;10.162;2023-12-20T08:36:03;5.93;;;2.35;;
28587;SDS011;15787;49.662;10.162;2023-12-20T08:38:36;6.47;;;1.75;;
28587;SDS011;15787;49.662;10.162;2023-12-20T08:41:09;5.30;;;2.00;;
28587;SDS011;15787;49.662;10.162;2023-12-20T08:43:42;3.13;;;2.00;;
28587;SDS011;15787;49.662;10.162;2023-12-20T08:46:16;3.80;;;1.92;;
28587;SDS011;15787;49.662;10.162;2023-12-20T08:48:50;7.10;;;1.90;;
28587;SDS011;15787;49.662;10.162;2023-12-20T08:51:23;4.72;;;1.77;;
28587;SDS011;15787;49.662;10.162;2023-12-20T08:53:57;6.13;;;1.48;;
28587;SDS011;15787;49.662;10.162;2023-12-20T08:56:30;7.38;;;1.67;;
28587;SDS011;15787;49.662;10.162;2023-12-20T08:59:03;4.20;;;1.55;;
28587;SDS011;15787;49.662;10.162;2023-12-20T09:01:37;6.05;;;1.98;;
28587;SDS011;15787;49.662;10.162;2023-12-20T09:04:10;5.93;;;2.42;;
28587;SDS011;15787;49.662;10.162;2023-12-20T09:06:43;6.05;;;2.08;;
28587;SDS011;15787;49.662;10.162;2023-12-20T09:09:16;3.25;;;1.77;;
28587;SDS011;15787;49.662;10.162;2023-12-20T09:11:50;4.43;;;1.70;;
28587;SDS011;15787;49.662;10.162;2023-12-20T09:14:22;4.97;;;1.70;;
28587;SDS011;15787;49.662;10.162;2023-12-20T09:16:57;3.67;;;1.85;;
28587;SDS011;15787;49.662;10.162;2023-12-20T09:19:30;3.95;;;2.00;;
28587;SDS011;15787;49.662;10.162;2023-12-20T09:22:03;3.60;;;1.83;;
28587;SDS011;15787;49.662;10.162;2023-12-20T09:24:36;2.17;;;1.33;;
28587;SDS011;15787;49.662;10.162;2023-12-20T09:27:10;3.95;;;1.55;;
28587;SDS011;15787;49.662;10.162;2023-12-20T09:29:43;4.03;;;1.80;;
28587;SDS011;15787;49.662;10.162;2023-12-20T09:32:17;5.25;;;2.17;;
28587;SDS011;15787;49.662;10.162;2023-12-20T09:34:51;4.95;;;1.70;;
28587;SDS011;15787;49.662;10.162;2023-12-20T09:37:25;6.28;;;1.63;;
28587;SDS011;15787;49.662;10.162;2023-12-20T09:39:59;5.18;;;2.20;;
28587;SDS011;15787;49.662;10.162;2023-12-20T09:42:33;2.63;;;1.60;;
28587;SDS011;15787;49.662;10.162;2023-12-20T09:45:16;4.43;;;1.52;;
28587;SDS011;15787;49.662;10.162;2023-12-20T09:47:53;6.63;;;1.70;;
28587;SDS011;15787;49.662;10.162;2023-12-20T09:50:26;4.03;;;2.00;;
28587;SDS011;15787;49.662;10.162;2023-12-20T09:53:02;7.65;;;3.17;;
28587;SDS011;15787;49.662;10.162;2023-12-20T09:55:36;4.97;;;2.42;;
28587;SDS011;15787;49.662;10.162;2023-12-20T09:58:10;6.35;;;2.05;;
28587;SDS011;15787;49.662;10.162;2023-12-20T10:00:43;5.35;;;2.15;;
28587;SDS011;15787;49.662;10.162;2023-12-20T10:03:17;2.92;;;1.75;;
28587;SDS011;15787;49.662;10.162;2023-12-20T10:05:56;5.65;;;1.73;;
28587;SDS011;15787;49.662;10.162;2023-12-20T10:08:30;6.10;;;1.85;;
28587;SDS011;15787;49.662;10.162;2023-12-20T10:11:03;5.18;;;2.00;;
28587;SDS011;15787;49.662;10.162;2023-12-20T10:13:38;2.53;;;1.80;;
28587;SDS011;15787;49.662;10.162;2023-12-20T10:16:12;4.18;;;1.50;;
28587;SDS011;15787;49.662;10.162;2023-12-20T10:18:46;4.85;;;1.50;;
28587;SDS011;15787;49.662;10.162;2023-12-20T10:21:19;5.40;;;1.58;;
28587;SDS011;15787;49.662;10.162;2023-12-20T10:23:52;7.90;;;1.88;;
28587;SDS011;15787;49.662;10.162;2023-12-20T10:26:26;7.25;;;1.70;;
28587;SDS011;15787;49.662;10.162;2023-12-20T10:28:59;6.00;;;1.50;;
28587;SDS011;15787;49.662;10.162;2023-12-20T10:31:33;5.07;;;1.75;;
28587;SDS011;15787;49.662;10.162;2023-12-20T10:34:07;4.85;;;2.17;;
28587;SDS011;15787;49.662;10.162;2023-12-20T10:36:41;5.55;;;1.88;;
28587;SDS011;15787;49.662;10.162;2023-12-20T10:39:14;5.72;;;1.92;;
28587;SDS011;15787;49.662;10.162;2023-12-20T10:41:48;6.60;;;1.75;;
28587;SDS011;15787;49.662;10.162;2023-12-20T10:44:21;3.17;;;1.80;;
28587;SDS011;15787;49.662;10.162;2023-12-20T10:46:54;7.40;;;2.00;;
28587;SDS011;15787;49.662;10.162;2023-12-20T10:49:31;4.05;;;1.90;;
28587;SDS011;15787;49.662;10.162;2023-12-20T10:52:07;2.58;;;1.40;;
28587;SDS011;15787;49.662;10.162;2023-12-20T10:54:41;6.43;;;1.52;;
28587;SDS011;15787;49.662;10.162;2023-12-20T10:57:14;4.72;;;1.67;;
28587;SDS011;15787;49.662;10.162;2023-12-20T10:59:49;5.63;;;1.73;;
28587;SDS011;15787;49.662;10.162;2023-12-20T11:02:26;6.20;;;1.92;;
28587;SDS011;15787;49.662;10.162;2023-12-20T11:05:04;4.13;;;1.65;;
28587;SDS011;15787;49.662;10.162;2023-12-20T11:07:43;4.30;;;1.73;;
28587;SDS011;15787;49.662;10.162;2023-12-20T11:10:22;5.10;;;1.60;;
28587;SDS011;15787;49.662;10.162;2023-12-20T11:12:58;4.55;;;1.83;;
28587;SDS011;15787;49.662;10.162;2023-12-20T11:15:43;7.53;;;1.63;;
28587;SDS011;15787;49.662;10.162;2023-12-20T11:18:17;6.90;;;1.80;;
28587;SDS011;15787;49.662;10.162;2023-12-20T11:20:51;4.25;;;1.65;;
28587;SDS011;15787;49.662;10.162;2023-12-20T11:23:27;2.88;;;1.60;;
28587;SDS011;15787;49.662;10.162;2023-12-20T11:26:00;4.40;;;2.03;;
28587;SDS011;15787;49.662;10.162;2023-12-20T11:28:34;5.03;;;1.92;;
28587;SDS011;15787;49.662;10.162;2023-12-20T11:31:07;5.47;;;1.58;;
28587;SDS011;15787;49.662;10.162;2023-12-20T11:33:42;7.35;;;2.10;;
28587;SDS011;15787;49.662;10.162;2023-12-20T11:36:18;11.85;;;2.38;;
28587;SDS011;15787;49.662;10.162;2023-12-20T11:38:55;3.22;;;1.45;;
28587;SDS011;15787;49.662;10.162;2023-12-20T11:41:29;4.60;;;1.65;;
28587;SDS011;15787;49.662;10.162;2023-12-20T11:44:05;5.85;;;1.75;;
28587;SDS011;15787;49.662;10.162;2023-12-20T11:46:37;6.60;;;1.70;;
28587;SDS011;15787;49.662;10.162;2023-12-20T11:49:10;4.88;;;1.52;;
28587;SDS011;15787;49.662;10.162;2023-12-20T11:51:45;3.72;;;1.90;;
28587;SDS011;15787;49.662;10.162;2023-12-20T11:54:18;3.67;;;1.52;;
28587;SDS011;15787;49.662;10.162;2023-12-20T11:56:50;3.08;;;1.50;;
28587;SDS011;15787;49.662;10.162;2023-12-20T11:59:23;4.63;;;1.60;;
28587;SDS011;15787;49.662;10.162;2023-12-20T12:01:56;6.22;;;1.70;;
28587;SDS011;15787;49.662;10.162;2023-12-20T12:04:33;7.35;;;1.92;;
28587;SDS011;15787;49.662;10.162;2023-12-20T12:07:09;3.80;;;1.67;;
28587;SDS011;15787;49.662;10.162;2023-12-20T12:09:42;6.35;;;1.60;;
28587;SDS011;15787;49.662;10.162;2023-12-20T12:12:15;5.70;;;1.60;;
28587;SDS011;15787;49.662;10.162;2023-12-20T12:14:51;3.67;;;2.00;;
28587;SDS011;15787;49.662;10.162;2023-12-20T12:17:25;3.83;;;1.48;;
28587;SDS011;15787;49.662;10.162;2023-12-20T12:20:01;5.50;;;1.48;;
28587;SDS011;15787;49.662;10.162;2023-12-20T12:22:40;8.40;;;1.80;;
28587;SDS011;15787;49.662;10.162;2023-12-20T12:25:13;4.55;;;1.30;;
28587;SDS011;15787;49.662;10.162;2023-12-20T12:27:46;5.70;;;1.48;;
28587;SDS011;15787;49.662;10.162;2023-12-20T12:30:19;5.35;;;1.55;;
28587;SDS011;15787;49.662;10.162;2023-12-20T12:32:52;5.05;;;1.40;;
28587;SDS011;15787;49.662;10.162;2023-12-20T12:35:26;4.05;;;1.55;;
28587;SDS011;15787;49.662;10.162;2023-12-20T12:38:00;5.20;;;1.33;;
28587;SDS011;15787;49.662;10.162;2023-12-20T12:40:34;6.45;;;3.20;;
28587;SDS011;15787;49.662;10.162;2023-12-20T12:43:08;7.82;;;1.60;;
28587;SDS011;15787;49.662;10.162;2023-12-20T12:45:41;9.05;;;1.35;;
28587;SDS011;15787;49.662;10.162;2023-12-20T12:48:15;7.18;;;1.88;;
28587;SDS011;15787;49.662;10.162;2023-12-20T12:50:48;5.63;;;1.52;;
28587;SDS011;15787;49.662;10.162;2023-12-20T12:53:24;6.55;;;1.63;;
28587;SDS011;15787;49.662;10.162;2023-12-20T12:55:58;2.90;;;1.17;;
28587;SDS011;15787;49.662;10.162;2023-12-20T12:58:31;4.55;;;1.40;;
28587;SDS011;15787;49.662;10.162;2023-12-20T13:01:05;5.55;;;1.50;;
28587;SDS011;15787;49.662;10.162;2023-12-20T13:03:38;8.85;;;2.75;;
28587;SDS011;15787;49.662;10.162;2023-12-20T13:06:11;6.30;;;1.83;;
28587;SDS011;15787;49.662;10.162;2023-12-20T13:08:45;5.05;;;1.40;;
28587;SDS011;15787;49.662;10.162;2023-12-20T13:11:18;9.00;;;1.92;;
28587;SDS011;15787;49.662;10.162;2023-12-20T13:13:50;5.82;;;1.77;;
28587;SDS011;15787;49.662;10.162;2023-12-20T13:16:24;8.68;;;1.48;;
28587;SDS011;15787;49.662;10.162;2023-12-20T13:18:57;6.03;;;1.35;;
28587;SDS011;15787;49.662;10.162;2023-12-20T13:21:31;9.75;;;1.88;;
28587;SDS011;15787;49.662;10.162;2023-12-20T13:24:06;5.45;;;1.70;;
28587;SDS011;15787;49.662;10.162;2023-12-20T13:26:39;5.72;;;1.70;;
28587;SDS011;15787;49.662;10.162;2023-12-20T13:29:12;6.72;;;1.88;;
28587;SDS011;15787;49.662;10.162;2023-12-20T13:31:45;11.82;;;2.17;;
28587;SDS011;15787;49.662;10.162;2023-12-20T13:34:18;4.35;;;1.52;;
28587;SDS011;15787;49.662;10.162;2023-12-20T13:36:51;7.32;;;1.42;;
28587;SDS011;15787;49.662;10.162;2023-12-20T13:39:26;9.00;;;1.75;;
28587;SDS011;15787;49.662;10.162;2023-12-20T13:41:58;8.95;;;1.70;;
28587;SDS011;15787;49.662;10.162;2023-12-20T13:44:32;4.47;;;1.60;;
28587;SDS011;15787;49.662;10.162;2023-12-20T13:47:05;9.25;;;1.40;;
28587;SDS011;15787;49.662;10.162;2023-12-20T13:49:38;6.35;;;1.80;;
28587;SDS011;15787;49.662;10.162;2023-12-20T13:52:11;3.97;;;1.67;;
28587;SDS011;15787;49.662;10.162;2023-12-20T13:54:46;5.60;;;1.58;;
28587;SDS011;15787;49.662;10.162;2023-12-20T13:57:19;5.20;;;1.80;;
28587;SDS011;15787;49.662;10.162;2023-12-20T14:00:12;5.18;;;1.75;;
28587;SDS011;15787;49.662;10.162;2023-12-20T14:02:46;5.22;;;2.03;;
28587;SDS011;15787;49.662;10.162;2023-12-20T14:05:20;14.13;;;2.28;;
28587;SDS011;15787;49.662;10.162;2023-12-20T14:07:59;6.22;;;1.55;;
28587;SDS011;15787;49.662;10.162;2023-12-20T14:10:34;4.38;;;1.63;;
28587;SDS011;15787;49.662;10.162;2023-12-20T14:13:07;7.55;;;2.72;;
28587;SDS011;15787;49.662;10.162;2023-12-20T14:15:40;7.97;;;2.22;;
28587;SDS011;15787;49.662;10.162;2023-12-20T14:18:13;10.18;;;2.40;;
28587;SDS011;15787;49.662;10.162;2023-12-20T14:20:47;6.55;;;3.13;;
28587;SDS011;15787;49.662;10.162;2023-12-20T14:23:22;3.92;;;1.92;;
28587;SDS011;15787;49.662;10.162;2023-12-20T14:25:56;7.85;;;2.20;;
28587;SDS011;15787;49.662;10.162;2023-12-20T14:28:30;8.43;;;3.33;;
28587;SDS011;15787;49.662;10.162;2023-12-20T14:31:03;10.02;;;2.83;;
28587;SDS011;15787;49.662;10.162;2023-12-20T14:33:37;6.22;;;2.10;;
28587;SDS011;15787;49.662;10.162;2023-12-20T14:36:10;8.20;;;2.30;;
28587;SDS011;15787;49.662;10.162;2023-12-20T14:38:45;5.05;;;2.30;;
28587;SDS011;15787;49.662;10.162;2023-12-20T14:41:20;8.75;;;2.58;;
28587;SDS011;15787;49.662;10.162;2023-12-20T14:43:55;7.10;;;2.33;;
28587;SDS011;15787;49.662;10.162;2023-12-20T14:46:28;4.90;;;2.20;;
28587;SDS011;15787;49.662;10.162;2023-12-20T14:49:01;9.05;;;2.63;;
28587;SDS011;15787;49.662;10.162;2023-12-20T14:51:34;6.97;;;2.90;;
28587;SDS011;15787;49.662;10.162;2023-12-20T14:54:08;8.85;;;3.30;;
28587;SDS011;15787;49.662;10.162;2023-12-20T14:56:43;6.38;;;3.20;;
28587;SDS011;15787;49.662;10.162;2023-12-20T14:59:16;8.40;;;2.38;;
28587;SDS011;15787;49.662;10.162;2023-12-20T15:01:49;8.75;;;2.70;;
28587;SDS011;15787;49.662;10.162;2023-12-20T15:04:22;7.75;;;2.67;;
28587;SDS011;15787;49.662;10.162;2023-12-20T15:07:00;7.10;;;3.17;;
28587;SDS011;15787;49.662;10.162;2023-12-20T15:09:34;9.43;;;3.83;;
28587;SDS011;15787;49.662;10.162;2023-12-20T15:12:08;12.20;;;5.05;;